createdAt,value
2023-02-08T00:00:12.582Z,-4.79
2023-02-08T00:01:16.207Z,-4.77
2023-02-08T00:02:18.301Z,-4.73
2023-02-08T00:03:20.252Z,-4.74
2023-02-08T00:04:22.265Z,-4.72
2023-02-08T00:05:24.209Z,-4.73
2023-02-08T00:06:26.076Z,-4.70
2023-02-08T00:07:27.996Z,-4.67
2023-02-08T00:08:29.834Z,-4.69
2023-02-08T00:09:31.832Z,-4.70
2023-02-08T00:10:33.808Z,-4.71
2023-02-08T00:11:35.771Z,-4.68
2023-02-08T00:12:38.412Z,-4.70
2023-02-08T00:13:42.123Z,-4.73
2023-02-08T00:14:44.341Z,-4.71
2023-02-08T00:15:46.697Z,-4.68
2023-02-08T00:16:48.956Z,-4.67
2023-02-08T00:17:50.833Z,-4.69
2023-02-08T00:18:52.762Z,-4.73
2023-02-08T00:19:54.715Z,-4.74
2023-02-08T00:20:57.511Z,-4.73
2023-02-08T00:21:59.373Z,-4.70
2023-02-08T00:23:01.254Z,-4.69
2023-02-08T00:24:03.123Z,-4.71
2023-02-08T00:25:08.601Z,-4.69
2023-02-08T00:26:11.093Z,-4.68
2023-02-08T00:27:12.898Z,-4.72
2023-02-08T00:28:15.742Z,-4.80
2023-02-08T00:29:17.637Z,-4.78
2023-02-08T00:30:19.573Z,-4.78
2023-02-08T00:31:21.571Z,-4.78
2023-02-08T00:32:23.920Z,-4.78
2023-02-08T00:33:25.776Z,-4.78
2023-02-08T00:34:27.598Z,-4.78
2023-02-08T00:35:29.894Z,-4.76
2023-02-08T00:36:31.703Z,-4.75
2023-02-08T00:37:33.598Z,-4.79
2023-02-08T00:38:35.727Z,-4.78
2023-02-08T00:39:37.548Z,-4.77
2023-02-08T00:40:39.788Z,-4.73
2023-02-08T00:41:41.800Z,-4.70
2023-02-08T00:42:43.598Z,-4.70
2023-02-08T00:43:45.421Z,-4.70
2023-02-08T00:44:47.285Z,-4.88
2023-02-08T00:45:53.904Z,-5.06
2023-02-08T00:46:55.979Z,-5.17
2023-02-08T00:47:57.942Z,-5.18
2023-02-08T00:48:59.708Z,-5.22
2023-02-08T00:50:01.573Z,-5.21
2023-02-08T00:51:11.050Z,-5.21
2023-02-08T00:52:12.863Z,-5.20
2023-02-08T00:53:14.692Z,-5.21
2023-02-08T00:54:17.368Z,-5.27
2023-02-08T00:55:19.291Z,-5.25
2023-02-08T00:56:21.211Z,-5.23
2023-02-08T00:57:23.099Z,-5.24
2023-02-08T00:58:25.143Z,-5.21
2023-02-08T00:59:28.025Z,-5.25
2023-02-08T01:00:29.924Z,-5.28
2023-02-08T01:01:31.910Z,-5.28
2023-02-08T01:02:33.775Z,-5.24
2023-02-08T01:03:37.038Z,-5.19
2023-02-08T01:04:39.259Z,-5.15
2023-02-08T01:05:41.031Z,-5.10
2023-02-08T01:06:42.961Z,-5.08
2023-02-08T01:07:44.891Z,-5.05
2023-02-08T01:08:47.007Z,-5.02
2023-02-08T01:09:48.932Z,-4.99
2023-02-08T01:10:50.869Z,-4.98
2023-02-08T01:11:52.749Z,-4.97
2023-02-08T01:12:55.755Z,-5.00
2023-02-08T01:13:58.309Z,-5.11
2023-02-08T01:15:00.170Z,-5.23
2023-02-08T01:16:11.555Z,-5.25
2023-02-08T01:17:13.523Z,-5.23
2023-02-08T01:18:15.395Z,-5.23
2023-02-08T01:19:17.475Z,-5.30
2023-02-08T01:20:19.389Z,-5.30
2023-02-08T01:21:22.512Z,-5.35
2023-02-08T01:22:24.432Z,-5.36
2023-02-08T01:23:26.393Z,-5.39
2023-02-08T01:24:28.218Z,-5.36
2023-02-08T01:25:30.133Z,-5.34
2023-02-08T01:26:32.691Z,-5.44
2023-02-08T01:27:34.582Z,-5.53
2023-02-08T01:28:37.323Z,-5.58
2023-02-08T01:29:39.202Z,-5.56
2023-02-08T01:30:41.323Z,-5.54
2023-02-08T01:31:43.925Z,-5.52
2023-02-08T01:32:45.933Z,-5.47
2023-02-08T01:33:47.788Z,-5.44
2023-02-08T01:34:49.656Z,-5.41
2023-02-08T01:35:52.962Z,-5.35
2023-02-08T01:36:54.857Z,-5.33
2023-02-08T01:37:56.688Z,-5.30
2023-02-08T01:38:58.605Z,-5.25
2023-02-08T01:40:00.423Z,-5.24
2023-02-08T01:41:02.934Z,-5.24
2023-02-08T01:42:05.054Z,-5.22
2023-02-08T01:43:16.812Z,-5.27
2023-02-08T01:44:18.571Z,-5.31
2023-02-08T01:45:29.121Z,-5.31
2023-02-08T01:46:31.673Z,-5.31
2023-02-08T01:47:33.727Z,-5.31
2023-02-08T01:48:38.059Z,-5.38
2023-02-08T01:49:40.351Z,-5.40
2023-02-08T01:50:46.750Z,-5.42
2023-02-08T01:51:50.600Z,-5.42
2023-02-08T01:52:52.489Z,-5.46
2023-02-08T01:53:55.855Z,-5.45
2023-02-08T01:55:03.481Z,-5.51
2023-02-08T01:56:07.440Z,-5.52
2023-02-08T01:57:09.696Z,-5.52
2023-02-08T01:58:12.701Z,-5.60
2023-02-08T01:59:21.928Z,-5.63
2023-02-08T02:00:24.611Z,-5.59
2023-02-08T02:01:28.023Z,-5.54
2023-02-08T02:02:30.294Z,-5.51
2023-02-08T02:03:32.429Z,-5.51
2023-02-08T02:04:34.303Z,-5.48
2023-02-08T02:05:39.749Z,-5.48
2023-02-08T02:06:44.303Z,-5.47
2023-02-08T02:07:46.541Z,-5.45
2023-02-08T02:08:56.680Z,-5.41
2023-02-08T02:10:02.263Z,-5.45
2023-02-08T02:11:04.201Z,-5.46
2023-02-08T02:12:07.779Z,-5.45
2023-02-08T02:13:18.634Z,-5.43
2023-02-08T02:14:23.827Z,-5.42
2023-02-08T02:15:25.790Z,-5.38
2023-02-08T02:16:27.710Z,-5.40
2023-02-08T02:17:29.660Z,-5.43
2023-02-08T02:18:32.624Z,-5.39
2023-02-08T02:19:40.739Z,-5.41
2023-02-08T02:21:02.886Z,-5.49
2023-02-08T02:22:11.899Z,-5.56
2023-02-08T02:23:29.382Z,-5.57
2023-02-08T02:24:40.170Z,-5.57
2023-02-08T02:25:53.454Z,-5.62
2023-02-08T02:27:14.502Z,-5.59
2023-02-08T02:28:19.110Z,-5.58
2023-02-08T02:29:39.602Z,-5.62
2023-02-08T02:30:47.162Z,-5.65
2023-02-08T02:31:57.898Z,-5.73
2023-02-08T02:33:11.907Z,-5.86
2023-02-08T02:34:20.702Z,-5.93
2023-02-08T02:35:29.015Z,-6.00
2023-02-08T02:36:33.972Z,-6.08
2023-02-08T02:37:49.853Z,-6.21
2023-02-08T02:39:05.834Z,-6.29
2023-02-08T02:40:15.899Z,-6.33
2023-02-08T02:41:44.227Z,-6.32
2023-02-08T02:43:07.527Z,-6.30
2023-02-08T02:44:22.295Z,-6.28
2023-02-08T02:45:24.023Z,-6.28
2023-02-08T02:46:41.308Z,-6.32
2023-02-08T02:47:52.387Z,-6.34
2023-02-08T02:49:04.573Z,-6.27
2023-02-08T02:50:12.216Z,-6.20
2023-02-08T02:51:17.041Z,-6.19
2023-02-08T02:52:28.593Z,-6.17
2023-02-08T02:53:42.416Z,-6.15
2023-02-08T02:54:51.077Z,-6.14
2023-02-08T02:55:58.657Z,-6.12
2023-02-08T02:57:03.030Z,-6.05
2023-02-08T02:58:06.322Z,-5.99
2023-02-08T02:59:09.833Z,-6.00
2023-02-08T03:00:12.579Z,-6.01
2023-02-08T03:01:21.375Z,-6.03
2023-02-08T03:02:23.377Z,-6.06
2023-02-08T03:03:26.765Z,-6.06
2023-02-08T03:04:34.835Z,-6.03
2023-02-08T03:05:36.730Z,-5.99
2023-02-08T03:06:38.512Z,-5.96
2023-02-08T03:08:00.594Z,-5.94
2023-02-08T03:09:09.369Z,-5.89
2023-02-08T03:10:17.012Z,-5.85
2023-02-08T03:11:20.736Z,-5.80
2023-02-08T03:12:45.281Z,-5.85
2023-02-08T03:13:53.001Z,-5.84
2023-02-08T03:14:57.937Z,-5.87
2023-02-08T03:16:13.903Z,-5.93
2023-02-08T03:17:18.758Z,-5.92
2023-02-08T03:18:32.827Z,-5.88
2023-02-08T03:19:34.710Z,-5.85
2023-02-08T03:20:41.906Z,-5.83
2023-02-08T03:21:47.233Z,-5.77
2023-02-08T03:23:05.417Z,-5.75
2023-02-08T03:24:33.609Z,-5.74
2023-02-08T03:25:41.211Z,-5.77
2023-02-08T03:26:49.108Z,-5.79
2023-02-08T03:28:04.644Z,-5.85
2023-02-08T03:29:12.047Z,-5.97
2023-02-08T03:30:20.475Z,-6.06
2023-02-08T03:31:22.448Z,-6.06
2023-02-08T03:32:27.155Z,-6.06
2023-02-08T03:33:36.609Z,-6.11
2023-02-08T03:35:04.969Z,-6.22
2023-02-08T03:36:12.912Z,-6.34
2023-02-08T03:37:21.942Z,-6.35
2023-02-08T03:38:29.987Z,-6.37
2023-02-08T03:39:33.429Z,-6.38
2023-02-08T03:40:40.468Z,-6.37
2023-02-08T03:41:44.547Z,-6.38
2023-02-08T03:42:47.708Z,-6.44
2023-02-08T03:43:56.894Z,-6.53
2023-02-08T03:45:03.408Z,-6.61
2023-02-08T03:46:05.277Z,-6.64
2023-02-08T03:47:10.395Z,-6.61
2023-02-08T03:48:14.473Z,-6.61
2023-02-08T03:49:19.963Z,-6.59
2023-02-08T03:50:23.321Z,-6.52
2023-02-08T03:51:26.889Z,-6.45
2023-02-08T03:52:30.598Z,-6.44
2023-02-08T03:53:38.755Z,-6.45
2023-02-08T03:54:44.248Z,-6.45
2023-02-08T03:55:47.431Z,-6.49
2023-02-08T03:56:55.100Z,-6.59
2023-02-08T03:58:00.112Z,-6.61
2023-02-08T03:59:03.936Z,-6.61
2023-02-08T04:00:12.305Z,-6.57
2023-02-08T04:01:32.726Z,-6.55
2023-02-08T04:02:36.610Z,-6.51
2023-02-08T04:03:39.047Z,-6.50
2023-02-08T04:04:46.877Z,-6.50
2023-02-08T04:05:50.012Z,-6.54
2023-02-08T04:06:51.885Z,-6.50
2023-02-08T04:07:53.840Z,-6.51
2023-02-08T04:08:56.307Z,-6.48
2023-02-08T04:09:58.189Z,-6.43
2023-02-08T04:11:00.124Z,-6.39
2023-02-08T04:12:02.064Z,-6.37
2023-02-08T04:13:04.766Z,-6.33
2023-02-08T04:14:06.643Z,-6.33
2023-02-08T04:15:08.936Z,-6.32
2023-02-08T04:16:12.465Z,-6.29
2023-02-08T04:17:14.328Z,-6.25
2023-02-08T04:18:16.106Z,-6.24
2023-02-08T04:19:17.989Z,-6.21
2023-02-08T04:20:20.004Z,-6.29
2023-02-08T04:21:22.016Z,-6.34
2023-02-08T04:22:23.852Z,-6.36
2023-02-08T04:23:25.740Z,-6.35
2023-02-08T04:24:27.647Z,-6.35
2023-02-08T04:25:29.532Z,-6.40
2023-02-08T04:26:31.347Z,-6.38
2023-02-08T04:27:33.217Z,-6.37
2023-02-08T04:28:35.516Z,-6.33
2023-02-08T04:29:37.412Z,-6.29
2023-02-08T04:30:39.552Z,-6.25
2023-02-08T04:31:41.828Z,-6.22
2023-02-08T04:32:43.674Z,-6.21
2023-02-08T04:33:45.554Z,-6.19
2023-02-08T04:34:47.366Z,-6.18
2023-02-08T04:35:49.291Z,-6.22
2023-02-08T04:36:51.199Z,-6.33
2023-02-08T04:37:53.057Z,-6.37
2023-02-08T04:38:54.950Z,-6.37
2023-02-08T04:39:56.766Z,-6.33
2023-02-08T04:40:58.701Z,-6.37
2023-02-08T04:42:02.955Z,-6.31
2023-02-08T04:43:05.303Z,-6.26
2023-02-08T04:44:07.150Z,-6.21
2023-02-08T04:45:09.443Z,-6.18
2023-02-08T04:46:11.828Z,-6.18
2023-02-08T04:47:13.776Z,-6.18
2023-02-08T04:48:15.676Z,-6.20
2023-02-08T04:49:17.559Z,-6.21
2023-02-08T04:50:19.572Z,-6.24
2023-02-08T04:51:21.514Z,-6.26
2023-02-08T04:52:23.305Z,-6.29
2023-02-08T04:53:26.048Z,-6.29
2023-02-08T04:54:27.957Z,-6.28
2023-02-08T04:55:29.979Z,-6.28
2023-02-08T04:56:31.937Z,-6.28
2023-02-08T04:57:34.039Z,-6.25
2023-02-08T04:58:36.310Z,-6.28
2023-02-08T04:59:38.198Z,-6.35
2023-02-08T05:00:40.313Z,-6.45
2023-02-08T05:01:42.622Z,-6.43
2023-02-08T05:02:44.629Z,-6.43
2023-02-08T05:03:46.726Z,-6.39
2023-02-08T05:04:48.612Z,-6.34
2023-02-08T05:05:57.422Z,-6.35
2023-02-08T05:06:59.406Z,-6.36
2023-02-08T05:08:01.331Z,-6.37
2023-02-08T05:09:03.553Z,-6.35
2023-02-08T05:10:05.616Z,-6.33
2023-02-08T05:11:07.532Z,-6.33
2023-02-08T05:12:09.500Z,-6.34
2023-02-08T05:13:11.399Z,-6.33
2023-02-08T05:14:13.221Z,-6.33
2023-02-08T05:15:15.127Z,-6.36
2023-02-08T05:16:17.186Z,-6.42
2023-02-08T05:17:19.116Z,-6.41
2023-02-08T05:18:20.960Z,-6.43
2023-02-08T05:19:22.787Z,-6.39
2023-02-08T05:20:24.633Z,-6.48
2023-02-08T05:21:26.507Z,-6.50
2023-02-08T05:22:28.423Z,-6.54
2023-02-08T05:23:30.293Z,-6.51
2023-02-08T05:24:32.112Z,-6.49
2023-02-08T05:25:34.007Z,-6.51
2023-02-08T05:26:35.940Z,-6.54
2023-02-08T05:27:37.895Z,-6.51
2023-02-08T05:28:39.762Z,-6.52
2023-02-08T05:29:41.633Z,-6.50
2023-02-08T05:30:43.594Z,-6.49
2023-02-08T05:31:45.588Z,-6.47
2023-02-08T05:32:47.591Z,-6.49
2023-02-08T05:33:50.195Z,-6.60
2023-02-08T05:34:52.087Z,-6.59
2023-02-08T05:35:53.933Z,-6.53
2023-02-08T05:36:55.754Z,-6.47
2023-02-08T05:37:57.685Z,-6.43
2023-02-08T05:38:59.575Z,-6.44
2023-02-08T05:40:01.411Z,-6.57
2023-02-08T05:41:03.342Z,-6.57
2023-02-08T05:42:05.226Z,-6.54
2023-02-08T05:43:07.714Z,-6.48
2023-02-08T05:44:09.520Z,-6.46
2023-02-08T05:45:11.382Z,-6.44
2023-02-08T05:46:13.323Z,-6.41
2023-02-08T05:47:15.327Z,-6.39
2023-02-08T05:48:17.551Z,-6.40
2023-02-08T05:49:19.439Z,-6.45
2023-02-08T05:50:21.464Z,-6.48
2023-02-08T05:51:23.433Z,-6.48
2023-02-08T05:52:25.302Z,-6.46
2023-02-08T05:53:27.681Z,-6.47
2023-02-08T05:54:29.627Z,-6.46
2023-02-08T05:55:31.481Z,-6.48
2023-02-08T05:56:33.384Z,-6.56
2023-02-08T05:57:35.852Z,-6.64
2023-02-08T05:58:37.801Z,-6.66
2023-02-08T05:59:39.676Z,-6.70
2023-02-08T06:00:41.696Z,-6.75
2023-02-08T06:01:43.660Z,-6.78
2023-02-08T06:02:45.650Z,-6.82
2023-02-08T06:03:47.589Z,-6.85
2023-02-08T06:04:49.592Z,-6.85
2023-02-08T06:05:51.492Z,-7.05
2023-02-08T06:06:53.365Z,-7.14
2023-02-08T06:07:55.301Z,-7.18
2023-02-08T06:08:57.148Z,-7.12
2023-02-08T06:09:59.101Z,-7.09
2023-02-08T06:11:00.998Z,-7.11
2023-02-08T06:12:03.159Z,-7.11
2023-02-08T06:13:05.565Z,-7.06
2023-02-08T06:14:07.437Z,-7.07
2023-02-08T06:15:09.581Z,-7.17
2023-02-08T06:16:11.602Z,-7.18
2023-02-08T06:17:13.538Z,-7.14
2023-02-08T06:18:15.542Z,-7.20
2023-02-08T06:19:18.386Z,-7.18
2023-02-08T06:20:20.450Z,-7.13
2023-02-08T06:21:24.396Z,-7.06
2023-02-08T06:22:26.527Z,-6.98
2023-02-08T06:23:28.310Z,-6.94
2023-02-08T06:24:30.176Z,-6.94
2023-02-08T06:25:32.204Z,-6.93
2023-02-08T06:26:34.685Z,-6.89
2023-02-08T06:27:36.567Z,-6.90
2023-02-08T06:28:38.472Z,-6.89
2023-02-08T06:29:40.305Z,-6.94
2023-02-08T06:30:42.569Z,-7.02
2023-02-08T06:31:44.721Z,-6.99
2023-02-08T06:32:46.949Z,-7.01
2023-02-08T06:33:48.939Z,-6.95
2023-02-08T06:34:51.906Z,-6.94
2023-02-08T06:35:53.901Z,-6.98
2023-02-08T06:36:55.884Z,-6.95
2023-02-08T06:37:59.115Z,-6.89
2023-02-08T06:39:01.037Z,-6.90
2023-02-08T06:40:02.945Z,-6.86
2023-02-08T06:41:04.987Z,-6.81
2023-02-08T06:42:06.874Z,-6.77
2023-02-08T06:43:08.881Z,-6.74
2023-02-08T06:44:10.762Z,-6.78
2023-02-08T06:45:13.722Z,-6.82
2023-02-08T06:46:15.745Z,-6.89
2023-02-08T06:47:17.695Z,-6.89
2023-02-08T06:48:19.796Z,-6.85
2023-02-08T06:49:21.618Z,-6.82
2023-02-08T06:50:24.225Z,-6.80
2023-02-08T06:51:26.506Z,-6.78
2023-02-08T06:52:28.314Z,-6.74
2023-02-08T06:53:30.698Z,-6.75
2023-02-08T06:54:32.520Z,-6.74
2023-02-08T06:55:34.488Z,-6.76
2023-02-08T06:56:36.529Z,-6.76
2023-02-08T06:57:38.373Z,-6.70
2023-02-08T06:58:40.205Z,-6.71
2023-02-08T06:59:42.118Z,-6.66
2023-02-08T07:00:45.761Z,-6.66
2023-02-08T07:01:47.630Z,-6.67
2023-02-08T07:02:49.542Z,-6.71
2023-02-08T07:03:51.371Z,-6.84
2023-02-08T07:04:53.395Z,-6.91
2023-02-08T07:06:04.592Z,-6.89
2023-02-08T07:07:07.378Z,-6.92
2023-02-08T07:08:09.424Z,-6.89
2023-02-08T07:09:11.233Z,-6.92
2023-02-08T07:10:13.149Z,-6.89
2023-02-08T07:11:16.403Z,-6.86
2023-02-08T07:12:18.386Z,-6.80
2023-02-08T07:13:20.255Z,-6.76
2023-02-08T07:14:22.071Z,-6.73
2023-02-08T07:15:24.252Z,-6.69
2023-02-08T07:16:26.141Z,-6.68
2023-02-08T07:17:28.084Z,-6.74
2023-02-08T07:18:29.990Z,-6.68
2023-02-08T07:19:31.902Z,-6.65
2023-02-08T07:20:33.779Z,-6.64
2023-02-08T07:21:35.701Z,-6.60
2023-02-08T07:22:38.031Z,-6.54
2023-02-08T07:23:39.913Z,-6.53
2023-02-08T07:24:41.853Z,-6.51
2023-02-08T07:25:43.717Z,-6.53
2023-02-08T07:26:45.613Z,-6.66
2023-02-08T07:27:47.629Z,-6.79
2023-02-08T07:28:49.494Z,-6.87
2023-02-08T07:29:51.306Z,-7.01
2023-02-08T07:30:53.567Z,-6.99
2023-02-08T07:31:55.506Z,-6.92
2023-02-08T07:32:57.408Z,-6.84
2023-02-08T07:33:59.386Z,-6.79
2023-02-08T07:35:01.266Z,-6.72
2023-02-08T07:36:05.841Z,-6.69
2023-02-08T07:37:08.204Z,-6.66
2023-02-08T07:38:10.444Z,-6.67
2023-02-08T07:39:12.281Z,-6.68
2023-02-08T07:40:14.271Z,-6.62
2023-02-08T07:41:16.151Z,-6.62
2023-02-08T07:42:18.014Z,-6.58
2023-02-08T07:43:19.962Z,-6.65
2023-02-08T07:44:21.835Z,-6.59
2023-02-08T07:45:24.119Z,-6.55
2023-02-08T07:46:26.070Z,-6.53
2023-02-08T07:47:28.044Z,-6.52
2023-02-08T07:48:30.154Z,-6.57
2023-02-08T07:49:33.943Z,-6.53
2023-02-08T07:50:35.801Z,-6.54
2023-02-08T07:51:37.860Z,-6.61
2023-02-08T07:52:39.698Z,-6.56
2023-02-08T07:53:41.649Z,-6.49
2023-02-08T07:54:43.453Z,-6.52
2023-02-08T07:55:45.726Z,-6.47
2023-02-08T07:56:47.687Z,-6.51
2023-02-08T07:57:50.020Z,-6.54
2023-02-08T07:58:51.949Z,-6.56
2023-02-08T07:59:54.299Z,-6.58
2023-02-08T08:00:56.263Z,-6.66
2023-02-08T08:01:58.241Z,-6.72
2023-02-08T08:03:00.685Z,-6.68
2023-02-08T08:04:02.620Z,-6.63
2023-02-08T08:05:04.484Z,-6.61
2023-02-08T08:06:06.559Z,-6.62
2023-02-08T08:07:08.553Z,-6.63
2023-02-08T08:08:11.139Z,-6.65
2023-02-08T08:09:13.458Z,-6.64
2023-02-08T08:10:15.376Z,-6.63
2023-02-08T08:11:20.163Z,-6.59
2023-02-08T08:12:22.114Z,-6.55
2023-02-08T08:13:24.153Z,-6.54
2023-02-08T08:14:25.966Z,-6.54
2023-02-08T08:15:28.069Z,-6.54
2023-02-08T08:16:29.883Z,-6.57
2023-02-08T08:17:31.877Z,-6.59
2023-02-08T08:18:33.678Z,-6.56
2023-02-08T08:19:35.574Z,-6.65
2023-02-08T08:20:37.430Z,-6.67
2023-02-08T08:21:39.583Z,-6.64
2023-02-08T08:22:41.480Z,-6.61
2023-02-08T08:23:43.475Z,-6.54
2023-02-08T08:24:45.336Z,-6.47
2023-02-08T08:25:47.277Z,-6.48
2023-02-08T08:26:49.141Z,-6.36
2023-02-08T08:27:51.036Z,-6.28
2023-02-08T08:28:52.829Z,-6.26
2023-02-08T08:29:54.826Z,-6.13
2023-02-08T08:30:57.782Z,-6.00
2023-02-08T08:31:59.774Z,-5.92
2023-02-08T08:33:01.679Z,-5.85
2023-02-08T08:34:03.637Z,-5.80
2023-02-08T08:35:06.196Z,-5.79
2023-02-08T08:36:08.807Z,-5.74
2023-02-08T08:37:10.871Z,-5.68
2023-02-08T08:38:12.795Z,-5.71
2023-02-08T08:39:14.811Z,-5.69
2023-02-08T08:40:16.647Z,-5.74
2023-02-08T08:41:19.077Z,-5.75
2023-02-08T08:42:21.535Z,-5.77
2023-02-08T08:43:23.502Z,-5.68
2023-02-08T08:44:25.543Z,-5.56
2023-02-08T08:45:27.582Z,-5.46
2023-02-08T08:46:29.554Z,-5.40
2023-02-08T08:47:31.673Z,-5.30
2023-02-08T08:48:34.450Z,-5.19
2023-02-08T08:49:36.296Z,-5.12
2023-02-08T08:50:39.584Z,-5.05
2023-02-08T08:51:41.890Z,-5.05
2023-02-08T08:52:43.810Z,-4.96
2023-02-08T08:53:45.655Z,-4.88
2023-02-08T08:54:47.546Z,-4.88
2023-02-08T08:55:49.423Z,-4.91
2023-02-08T08:56:51.261Z,-4.86
2023-02-08T08:57:53.954Z,-4.82
2023-02-08T08:58:55.870Z,-4.75
2023-02-08T08:59:57.730Z,-4.64
2023-02-08T09:01:00.629Z,-4.57
2023-02-08T09:02:02.821Z,-4.53
2023-02-08T09:03:04.773Z,-4.53
2023-02-08T09:04:06.749Z,-4.55
2023-02-08T09:05:08.870Z,-4.65
2023-02-08T09:06:11.363Z,-4.66
2023-02-08T09:07:13.216Z,-4.59
2023-02-08T09:08:15.145Z,-4.51
2023-02-08T09:09:17.619Z,-4.46
2023-02-08T09:10:19.879Z,-4.36
2023-02-08T09:11:21.732Z,-4.30
2023-02-08T09:12:23.676Z,-4.28
2023-02-08T09:13:25.659Z,-4.22
2023-02-08T09:14:27.847Z,-4.22
2023-02-08T09:15:29.648Z,-4.09
2023-02-08T09:16:31.787Z,-4.01
2023-02-08T09:17:33.721Z,-3.92
2023-02-08T09:18:35.569Z,-3.90
2023-02-08T09:19:37.529Z,-3.87
2023-02-08T09:20:39.695Z,-3.85
2023-02-08T09:21:41.645Z,-3.73
2023-02-08T09:22:43.573Z,-3.69
2023-02-08T09:23:47.648Z,-3.59
2023-02-08T09:24:49.634Z,-3.51
2023-02-08T09:25:51.408Z,-3.54
2023-02-08T09:26:53.319Z,-3.45
2023-02-08T09:27:55.220Z,-3.35
2023-02-08T09:28:57.241Z,-3.24
2023-02-08T09:29:59.197Z,-3.30
2023-02-08T09:31:08.140Z,-3.24
2023-02-08T09:32:10.602Z,-3.14
2023-02-08T09:33:12.588Z,-3.13
2023-02-08T09:34:14.485Z,-3.27
2023-02-08T09:35:16.493Z,-3.22
2023-02-08T09:36:18.602Z,-3.15
2023-02-08T09:37:20.585Z,-3.09
2023-02-08T09:38:22.463Z,-3.11
2023-02-08T09:39:28.271Z,-3.14
2023-02-08T09:40:47.714Z,-3.05
2023-02-08T09:41:59.937Z,-3.00
2023-02-08T09:43:01.692Z,-2.94
2023-02-08T09:44:06.487Z,-2.89
2023-02-08T09:45:08.319Z,-2.82
2023-02-08T09:46:36.712Z,-2.71
2023-02-08T09:47:44.597Z,-2.60
2023-02-08T09:48:46.966Z,-2.52
2023-02-08T09:49:58.594Z,-2.41
2023-02-08T09:51:03.524Z,-2.57
2023-02-08T09:52:16.669Z,-2.54
2023-02-08T09:53:25.875Z,-2.53
2023-02-08T09:54:33.606Z,-2.55
2023-02-08T09:55:38.121Z,-2.56
2023-02-08T09:56:41.362Z,-2.47
2023-02-08T09:57:45.553Z,-2.38
2023-02-08T09:58:50.280Z,-2.34
2023-02-08T09:59:57.673Z,-2.24
2023-02-08T10:01:00.036Z,-2.08
2023-02-08T10:02:04.646Z,-2.00
2023-02-08T10:03:09.718Z,-2.02
2023-02-08T10:04:25.182Z,-2.07
2023-02-08T10:05:27.655Z,-2.04
2023-02-08T10:06:30.420Z,-1.91
2023-02-08T10:07:33.404Z,-1.82
2023-02-08T10:08:36.161Z,-1.71
2023-02-08T10:09:38.155Z,-1.61
2023-02-08T10:10:51.980Z,-1.60
2023-02-08T10:12:05.005Z,-1.46
2023-02-08T10:13:09.704Z,-1.33
2023-02-08T10:14:30.321Z,-1.24
2023-02-08T10:15:35.147Z,-1.35
2023-02-08T10:16:52.268Z,-1.32
2023-02-08T10:18:19.202Z,-1.24
2023-02-08T10:19:37.980Z,-1.06
2023-02-08T10:20:55.103Z,-0.90
2023-02-08T10:22:04.692Z,-0.84
2023-02-08T10:23:06.502Z,-0.71
2023-02-08T10:24:20.412Z,-0.66
2023-02-08T10:25:25.303Z,-0.74
2023-02-08T10:26:53.471Z,-0.69
2023-02-08T10:28:01.439Z,-0.65
2023-02-08T10:29:39.015Z,-0.69
2023-02-08T10:31:13.283Z,-0.58
2023-02-08T10:32:35.504Z,-0.48
2023-02-08T10:33:42.343Z,-0.40
2023-02-08T10:34:44.870Z,-0.54
2023-02-08T10:35:48.778Z,-0.46
2023-02-08T10:36:50.741Z,-0.41
2023-02-08T10:37:53.154Z,-0.35
2023-02-08T10:38:55.677Z,-0.38
2023-02-08T10:39:59.056Z,-0.29
2023-02-08T10:41:02.263Z,-0.15
2023-02-08T10:42:04.958Z,-0.07
2023-02-08T10:43:12.513Z,0.01
2023-02-08T10:44:20.032Z,-0.12
2023-02-08T10:45:27.916Z,-0.07
2023-02-08T10:46:43.257Z,-0.01
2023-02-08T10:47:45.253Z,-0.01
2023-02-08T10:48:54.685Z,0.00
2023-02-08T10:50:05.110Z,0.01
2023-02-08T10:51:09.802Z,0.08
2023-02-08T10:52:11.795Z,0.19
2023-02-08T10:53:17.028Z,0.17
2023-02-08T10:54:18.941Z,0.18
2023-02-08T10:55:21.563Z,0.10
2023-02-08T10:56:41.410Z,-0.03
2023-02-08T10:57:44.387Z,-0.13
2023-02-08T10:58:46.259Z,0.03
2023-02-08T10:59:49.824Z,0.21
2023-02-08T11:00:54.507Z,0.29
2023-02-08T11:01:56.868Z,0.44
2023-02-08T11:03:01.301Z,0.49
2023-02-08T11:04:08.170Z,0.53
2023-02-08T11:05:10.025Z,0.63
2023-02-08T11:06:32.094Z,0.63
2023-02-08T11:07:36.488Z,0.66
2023-02-08T11:08:53.937Z,0.77
2023-02-08T11:10:13.269Z,0.64
2023-02-08T11:11:15.653Z,0.74
2023-02-08T11:12:19.811Z,0.83
2023-02-08T11:13:26.961Z,0.92
2023-02-08T11:14:46.261Z,0.99
2023-02-08T11:15:53.016Z,1.09
2023-02-08T11:16:56.833Z,1.20
2023-02-08T11:18:00.446Z,1.33
2023-02-08T11:19:03.328Z,1.38
2023-02-08T11:20:05.332Z,1.23
2023-02-08T11:21:11.030Z,1.36
2023-02-08T11:22:17.401Z,1.53
2023-02-08T11:23:28.521Z,1.71
2023-02-08T11:24:43.546Z,1.87
2023-02-08T11:25:46.003Z,1.93
2023-02-08T11:26:49.244Z,1.93
2023-02-08T11:27:51.051Z,2.06
2023-02-08T11:29:12.659Z,2.23
2023-02-08T11:30:14.508Z,2.38
2023-02-08T11:31:18.807Z,2.53
2023-02-08T11:32:20.895Z,2.63
2023-02-08T11:33:23.876Z,2.72
2023-02-08T11:34:27.144Z,2.82
2023-02-08T11:35:33.982Z,2.92
2023-02-08T11:36:36.729Z,2.85
2023-02-08T11:37:38.616Z,2.76
2023-02-08T11:38:42.457Z,2.76
2023-02-08T11:39:50.026Z,2.75
2023-02-08T11:40:53.746Z,2.87
2023-02-08T11:42:00.906Z,3.02
2023-02-08T11:43:03.319Z,3.13
2023-02-08T11:44:07.500Z,3.19
2023-02-08T11:45:19.263Z,3.22
2023-02-08T11:46:23.602Z,3.27
2023-02-08T11:47:31.744Z,3.36
2023-02-08T11:48:45.003Z,3.44
2023-02-08T11:49:52.627Z,3.47
2023-02-08T11:50:57.741Z,3.55
2023-02-08T11:51:59.676Z,3.64
2023-02-08T11:53:04.097Z,3.71
2023-02-08T11:54:06.151Z,3.88
2023-02-08T11:55:24.291Z,4.07
2023-02-08T11:56:30.095Z,4.15
2023-02-08T11:57:33.155Z,4.28
2023-02-08T11:58:35.085Z,4.25
2023-02-08T11:59:36.950Z,4.30
2023-02-08T12:00:39.686Z,4.37
2023-02-08T12:01:42.845Z,4.56
2023-02-08T12:02:46.736Z,4.59
2023-02-08T12:03:50.867Z,4.72
2023-02-08T12:04:52.802Z,4.79
2023-02-08T12:06:03.456Z,4.77
2023-02-08T12:07:17.728Z,4.71
2023-02-08T12:08:29.632Z,4.63
2023-02-08T12:09:43.648Z,4.72
2023-02-08T12:10:48.135Z,4.81
2023-02-08T12:12:05.870Z,4.88
2023-02-08T12:13:21.933Z,4.78
2023-02-08T12:14:37.659Z,4.84
2023-02-08T12:15:51.373Z,4.91
2023-02-08T12:17:05.392Z,5.03
2023-02-08T12:18:16.238Z,5.16
2023-02-08T12:19:37.023Z,5.18
2023-02-08T12:20:42.763Z,5.37
2023-02-08T12:21:46.422Z,5.49
2023-02-08T12:23:14.367Z,5.19
2023-02-08T12:24:34.675Z,5.10
2023-02-08T12:26:05.869Z,5.06
2023-02-08T12:27:07.695Z,4.79
2023-02-08T12:28:18.548Z,4.81
2023-02-08T12:29:47.475Z,5.03
2023-02-08T12:30:53.224Z,5.22
2023-02-08T12:32:23.271Z,5.23
2023-02-08T12:33:40.262Z,5.12
2023-02-08T12:34:48.547Z,5.22
2023-02-08T12:36:03.221Z,5.23
2023-02-08T12:37:32.151Z,5.12
2023-02-08T12:39:19.118Z,4.92
2023-02-08T12:40:40.356Z,5.14
2023-02-08T12:41:42.209Z,5.31
2023-02-08T12:42:56.592Z,5.10
2023-02-08T12:44:13.730Z,4.92
2023-02-08T12:45:32.113Z,4.74
2023-02-08T12:46:43.110Z,4.84
2023-02-08T12:48:03.024Z,4.66
2023-02-08T12:49:18.957Z,4.53
2023-02-08T12:50:43.387Z,4.48
2023-02-08T12:51:54.207Z,4.48
2023-02-08T12:53:31.644Z,4.56
2023-02-08T12:54:39.702Z,4.45
2023-02-08T12:55:43.193Z,4.36
2023-02-08T12:57:01.590Z,4.50
2023-02-08T12:58:16.276Z,4.60
2023-02-08T12:59:31.515Z,4.65
2023-02-08T13:00:35.681Z,4.75
2023-02-08T13:01:41.673Z,4.87
2023-02-08T13:02:59.147Z,4.72
2023-02-08T13:04:04.451Z,4.72
2023-02-08T13:05:07.750Z,4.87
2023-02-08T13:06:14.615Z,4.89
2023-02-08T13:07:18.826Z,4.93
2023-02-08T13:08:26.590Z,4.94
2023-02-08T13:09:35.744Z,4.98
2023-02-08T13:10:40.827Z,4.85
2023-02-08T13:11:58.422Z,4.52
2023-02-08T13:13:05.170Z,4.46
2023-02-08T13:14:20.432Z,4.64
2023-02-08T13:15:40.010Z,4.81
2023-02-08T13:16:45.256Z,4.95
2023-02-08T13:17:47.122Z,5.07
2023-02-08T13:18:53.848Z,4.94
2023-02-08T13:20:01.584Z,5.06
2023-02-08T13:21:07.048Z,4.98
2023-02-08T13:22:11.293Z,4.94
2023-02-08T13:23:43.502Z,4.80
2023-02-08T13:25:06.336Z,4.76
2023-02-08T13:26:15.733Z,4.70
2023-02-08T13:27:18.899Z,4.78
2023-02-08T13:28:24.880Z,4.83
2023-02-08T13:29:28.319Z,4.64
2023-02-08T13:30:31.866Z,4.58
2023-02-08T13:31:41.679Z,4.32
2023-02-08T13:32:45.908Z,4.30
2023-02-08T13:34:00.809Z,4.37
2023-02-08T13:35:11.774Z,4.40
2023-02-08T13:36:21.455Z,4.35
2023-02-08T13:37:26.733Z,4.19
2023-02-08T13:38:30.471Z,3.98
2023-02-08T13:39:32.348Z,3.88
2023-02-08T13:40:38.021Z,3.90
2023-02-08T13:41:51.126Z,4.00
2023-02-08T13:42:57.442Z,4.05
2023-02-08T13:44:01.830Z,4.17
2023-02-08T13:45:05.247Z,4.31
2023-02-08T13:46:07.850Z,4.29
2023-02-08T13:47:23.621Z,4.28
2023-02-08T13:48:27.256Z,4.45
2023-02-08T13:49:47.778Z,4.48
2023-02-08T13:50:52.138Z,4.58
2023-02-08T13:51:54.825Z,4.56
2023-02-08T13:52:56.680Z,4.56
2023-02-08T13:53:58.622Z,4.57
2023-02-08T13:55:18.886Z,4.58
2023-02-08T13:56:38.318Z,4.63
2023-02-08T13:57:54.095Z,4.67
2023-02-08T13:59:01.529Z,4.64
2023-02-08T14:00:22.189Z,4.61
2023-02-08T14:01:25.699Z,4.68
2023-02-08T14:02:28.651Z,4.60
2023-02-08T14:03:32.020Z,4.67
2023-02-08T14:04:35.174Z,4.77
2023-02-08T14:05:46.245Z,4.96
2023-02-08T14:06:50.302Z,5.13